Time;durP1;ratioP1;P1;durP2;ratioP2;P2;SDS_P1;SDS_P2;PMS_P1;PMS_P2;Temp;Humidity;BMP_temperature;BMP_pressure;BME280_temperature;BME280_humidity;BME280_pressure;Samples;Min_cycle;Max_cycle;Signal;HPM_P1;HPM_P2
2023/08/21 00:00:00;;;;;;;0.00;0.00;;;14.80;99.90;;;;;;5095819;28;20131;-69
2023/08/21 00:02:27;;;;;;;0.20;0.20;;;14.60;99.90;;;;;;5101143;27;20062;-69
2023/08/21 00:04:54;;;;;;;0.08;0.08;;;14.50;99.90;;;;;;5098688;27;20031;-69
2023/08/21 00:07:20;;;;;;;0.17;0.17;;;14.40;99.90;;;;;;5078626;27;20076;-69
2023/08/21 00:09:45;;;;;;;0.30;0.30;;;14.30;99.90;;;;;;5096402;28;20047;-69
2023/08/21 00:12:11;;;;;;;0.10;0.03;;;14.20;99.90;;;;;;5129513;27;20040;-68
2023/08/21 00:14:36;;;;;;;0.00;0.00;;;14.20;99.90;;;;;;5098513;28;20039;-69
2023/08/21 00:17:03;;;;;;;0.00;0.00;;;14.20;99.90;;;;;;5098579;27;20046;-68
2023/08/21 00:19:29;;;;;;;0.03;0.03;;;14.20;99.90;;;;;;5100180;28;20051;-69
2023/08/21 00:21:54;;;;;;;0.00;0.00;;;14.20;99.90;;;;;;5103668;28;20039;-68
2023/08/21 00:24:20;;;;;;;0.10;0.10;;;14.20;99.90;;;;;;5134308;27;20050;-68
2023/08/21 00:26:46;;;;;;;0.10;0.10;;;14.20;99.90;;;;;;5109087;27;20031;-68
2023/08/21 00:29:11;;;;;;;1.67;1.17;;;14.20;99.90;;;;;;5104945;27;20081;-68
2023/08/21 00:31:37;;;;;;;0.10;0.10;;;14.20;99.90;;;;;;5105364;27;21286;-69
2023/08/21 00:34:02;;;;;;;0.57;0.57;;;14.10;99.90;;;;;;5123840;27;20035;-68
2023/08/21 00:36:28;;;;;;;0.10;0.10;;;14.10;99.90;;;;;;5105317;27;20698;-69
2023/08/21 00:38:53;;;;;;;0.10;0.10;;;14.20;99.90;;;;;;5119952;27;20054;-68
2023/08/21 00:41:19;;;;;;;0.00;0.00;;;14.20;99.90;;;;;;5113215;27;20046;-68
2023/08/21 00:43:44;;;;;;;0.17;0.17;;;14.20;99.90;;;;;;5120413;27;20031;-69
2023/08/21 00:46:10;;;;;;;0.10;0.10;;;14.20;99.90;;;;;;5105561;27;20446;-69
2023/08/21 00:48:37;;;;;;;0.10;0.10;;;14.20;99.90;;;;;;5109393;27;20043;-69
2023/08/21 00:51:04;;;;;;;0.10;0.10;;;14.20;99.90;;;;;;5111151;27;20122;-69
2023/08/21 00:53:30;;;;;;;0.10;0.10;;;14.20;99.90;;;;;;5102703;27;20145;-69
2023/08/21 00:55:56;;;;;;;0.00;0.00;;;14.20;99.90;;;;;;5107927;27;20115;-69
2023/08/21 00:58:21;;;;;;;0.10;0.10;;;14.20;99.90;;;;;;5107532;27;20318;-69
2023/08/21 01:00:49;;;;;;;0.00;0.00;;;14.20;99.90;;;;;;5110736;27;20023;-69
2023/08/21 01:03:15;;;;;;;0.10;0.10;;;14.20;99.90;;;;;;5105880;27;20386;-69
2023/08/21 01:05:41;;;;;;;0.00;0.00;;;14.20;99.90;;;;;;5108500;27;20035;-69
2023/08/21 01:08:13;;;;;;;0.10;0.10;;;14.10;99.90;;;;;;5138391;27;20046;-68
2023/08/21 01:10:55;;;;;;;0.03;0.03;;;14.10;99.90;;;;;;5107944;27;20386;-69
2023/08/21 01:13:50;;;;;;;0.00;0.00;;;14.00;99.90;;;;;;5131639;27;20516;-70
2023/08/21 01:16:16;;;;;;;0.00;0.00;;;14.00;99.90;;;;;;5096827;27;21945;-69
2023/08/21 01:18:44;;;;;;;0.00;0.00;;;13.90;99.90;;;;;;5104066;27;20035;-70
2023/08/21 01:21:10;;;;;;;0.08;0.08;;;13.70;99.90;;;;;;5111558;27;20039;-69
2023/08/21 01:23:37;;;;;;;0.20;0.20;;;13.50;99.90;;;;;;5103971;27;20112;-69
2023/08/21 01:26:03;;;;;;;0.13;0.10;;;13.50;99.90;;;;;;5106784;27;20050;-69
2023/08/21 01:28:30;;;;;;;0.10;0.10;;;13.40;99.90;;;;;;5102011;27;20059;-70
2023/08/21 01:31:18;;;;;;;0.80;0.20;;;13.30;99.90;;;;;;5113125;27;20039;-69
2023/08/21 01:33:56;;;;;;;0.17;0.17;;;13.30;99.90;;;;;;5102848;27;20073;-69
2023/08/21 01:36:23;;;;;;;0.10;0.10;;;13.30;99.90;;;;;;5104426;27;20035;-70
2023/08/21 01:38:48;;;;;;;0.10;0.10;;;13.30;99.90;;;;;;5100716;27;20030;-70
2023/08/21 01:41:14;;;;;;;0.30;0.10;;;13.30;99.90;;;;;;5106694;27;20039;-70
2023/08/21 01:43:40;;;;;;;0.00;0.00;;;13.30;99.90;;;;;;5098907;27;20043;-70
2023/08/21 01:46:06;;;;;;;0.00;0.00;;;13.30;99.90;;;;;;5121746;27;20674;-70
2023/08/21 01:48:32;;;;;;;0.10;0.10;;;13.20;99.90;;;;;;5100015;27;20150;-70
2023/08/21 01:51:00;;;;;;;0.00;0.00;;;13.20;99.90;;;;;;5105549;27;20133;-70
2023/08/21 01:53:25;;;;;;;0.10;0.10;;;13.20;99.90;;;;;;5099147;27;20054;-70
2023/08/21 01:55:51;;;;;;;0.10;0.10;;;13.20;99.90;;;;;;5101495;27;20034;-70
2023/08/21 01:58:16;;;;;;;0.10;0.10;;;13.20;99.90;;;;;;5125382;27;20050;-70
2023/08/21 02:00:46;;;;;;;0.05;0.05;;;13.20;99.90;;;;;;5106136;27;20031;-70
2023/08/21 02:03:11;;;;;;;0.10;0.10;;;13.10;99.90;;;;;;5097336;28;20089;-70
2023/08/21 02:05:39;;;;;;;0.00;0.00;;;13.10;99.90;;;;;;5128747;27;20108;-70
2023/08/21 02:08:05;;;;;;;0.00;0.00;;;13.10;99.90;;;;;;5100598;27;20070;-70
2023/08/21 02:10:31;;;;;;;0.00;0.00;;;13.10;99.90;;;;;;5101060;27;20053;-70
2023/08/21 02:12:56;;;;;;;0.10;0.10;;;13.10;99.90;;;;;;5113381;27;20038;-70
2023/08/21 02:15:23;;;;;;;0.20;0.10;;;13.20;99.90;;;;;;5106771;27;20031;-70
2023/08/21 02:17:48;;;;;;;0.00;0.00;;;13.20;99.90;;;;;;5130938;27;20051;-70
2023/08/21 02:20:14;;;;;;;0.10;0.10;;;13.20;99.90;;;;;;5108654;27;20484;-70
2023/08/21 02:22:39;;;;;;;0.00;0.00;;;13.20;99.90;;;;;;5102756;27;20046;-70
2023/08/21 02:25:05;;;;;;;0.10;0.10;;;13.20;99.90;;;;;;5121258;27;20031;-70
2023/08/21 02:27:31;;;;;;;0.00;0.00;;;13.20;99.90;;;;;;5102316;27;20470;-70
2023/08/21 02:29:56;;;;;;;0.05;0.05;;;13.10;99.90;;;;;;5098955;28;20116;-71
2023/08/21 02:32:22;;;;;;;0.35;0.15;;;13.10;99.90;;;;;;5099172;27;20043;-71
2023/08/21 02:34:48;;;;;;;0.52;0.52;;;13.10;99.90;;;;;;5102278;27;20784;-70
2023/08/21 02:37:13;;;;;;;0.90;0.20;;;13.00;99.90;;;;;;5101507;27;20444;-70
2023/08/21 02:39:39;;;;;;;0.10;0.10;;;13.00;99.90;;;;;;5101264;27;20389;-70
2023/08/21 02:42:04;;;;;;;1.77;0.52;;;13.00;99.90;;;;;;5107536;27;20087;-69
2023/08/21 02:44:30;;;;;;;0.10;0.10;;;13.00;99.90;;;;;;5104789;27;20047;-70
2023/08/21 02:46:56;;;;;;;0.10;0.10;;;12.90;99.90;;;;;;5103609;27;20496;-70
2023/08/21 02:49:21;;;;;;;0.17;0.17;;;12.90;99.90;;;;;;5100852;27;20389;-70
2023/08/21 02:51:47;;;;;;;0.00;0.00;;;12.90;99.90;;;;;;5097574;27;20046;-70
2023/08/21 02:54:12;;;;;;;0.10;0.08;;;12.80;99.90;;;;;;5103178;27;20476;-70
2023/08/21 02:56:38;;;;;;;0.00;0.00;;;12.80;99.90;;;;;;5103545;27;20160;-70
2023/08/21 02:59:04;;;;;;;0.00;0.00;;;12.80;99.90;;;;;;5119448;27;20469;-70
2023/08/21 03:01:30;;;;;;;0.10;0.10;;;12.90;99.90;;;;;;5101284;28;20047;-70
2023/08/21 03:03:55;;;;;;;0.10;0.10;;;12.90;99.90;;;;;;5136999;27;20039;-70
2023/08/21 03:06:21;;;;;;;0.00;0.00;;;12.80;99.90;;;;;;5098447;27;20117;-70
2023/08/21 03:08:47;;;;;;;0.10;0.10;;;12.80;99.90;;;;;;5117967;27;20043;-70
2023/08/21 03:11:12;;;;;;;0.05;0.05;;;12.70;99.90;;;;;;5136137;27;20101;-70
2023/08/21 03:13:38;;;;;;;0.00;0.00;;;12.70;99.90;;;;;;5105241;27;20063;-70
2023/08/21 03:16:04;;;;;;;0.10;0.00;;;12.60;99.90;;;;;;5110182;27;20082;-70
2023/08/21 03:18:31;;;;;;;0.00;0.00;;;12.70;99.90;;;;;;5102094;27;20110;-70
2023/08/21 03:20:57;;;;;;;0.08;0.08;;;12.70;99.90;;;;;;5105368;27;20050;-70
2023/08/21 03:23:23;;;;;;;0.20;0.20;;;12.70;99.90;;;;;;5104774;27;20039;-70
2023/08/21 03:25:52;;;;;;;0.00;0.00;;;12.70;99.90;;;;;;5105084;27;20045;-70
2023/08/21 03:28:17;;;;;;;0.00;0.00;;;12.50;99.90;;;;;;5103460;27;20043;-70
2023/08/21 03:30:43;;;;;;;0.00;0.00;;;12.50;99.90;;;;;;5117205;27;20043;-70
2023/08/21 03:33:09;;;;;;;0.00;0.00;;;12.50;99.90;;;;;;5131681;27;20558;-70
2023/08/21 03:35:34;;;;;;;0.00;0.00;;;12.50;99.90;;;;;;5135718;27;20291;-70
2023/08/21 03:38:00;;;;;;;0.10;0.10;;;12.50;99.90;;;;;;5098598;27;20031;-70
2023/08/21 03:40:25;;;;;;;0.00;0.00;;;12.60;99.90;;;;;;5137756;27;20032;-70
2023/08/21 03:42:51;;;;;;;0.00;0.00;;;12.60;99.90;;;;;;5100096;27;20100;-70
2023/08/21 03:45:17;;;;;;;0.03;0.03;;;12.60;99.90;;;;;;5100729;27;20035;-70
2023/08/21 03:47:42;;;;;;;0.20;0.20;;;12.70;99.90;;;;;;5100213;28;20078;-70
2023/08/21 03:50:08;;;;;;;0.10;0.10;;;12.60;99.90;;;;;;5119183;27;20387;-70
2023/08/21 03:52:34;;;;;;;0.00;0.00;;;12.60;99.90;;;;;;5105497;27;20083;-69
2023/08/21 03:54:59;;;;;;;0.10;0.10;;;12.50;99.90;;;;;;5102222;27;20046;-69
2023/08/21 03:57:25;;;;;;;0.00;0.00;;;12.60;99.90;;;;;;5099395;27;20058;-69
2023/08/21 03:59:51;;;;;;;0.10;0.10;;;12.60;99.90;;;;;;5103409;27;20496;-69
2023/08/21 04:02:16;;;;;;;0.22;0.10;;;12.60;99.90;;;;;;5101625;27;20054;-69
2023/08/21 04:04:42;;;;;;;0.00;0.00;;;12.60;99.90;;;;;;5107790;27;20088;-69
2023/08/21 04:07:07;;;;;;;0.00;0.00;;;12.60;99.90;;;;;;5089798;27;20038;-69
2023/08/21 04:09:33;;;;;;;0.08;0.08;;;12.50;99.90;;;;;;5104179;27;20054;-70
2023/08/21 04:11:58;;;;;;;0.00;0.00;;;12.50;99.90;;;;;;5101623;28;20139;-69
2023/08/21 04:14:24;;;;;;;0.52;0.25;;;12.40;99.90;;;;;;5099066;28;20039;-69
2023/08/21 04:16:50;;;;;;;0.10;0.10;;;12.30;99.90;;;;;;5090729;27;20043;-69
2023/08/21 04:19:15;;;;;;;0.00;0.00;;;12.20;99.90;;;;;;5108794;27;20393;-69
2023/08/21 04:21:41;;;;;;;0.00;0.00;;;12.20;99.90;;;;;;5109439;28;20130;-69
2023/08/21 04:24:07;;;;;;;0.20;0.10;;;12.20;99.90;;;;;;5104601;28;20046;-70
2023/08/21 04:26:32;;;;;;;0.00;0.00;;;12.30;99.90;;;;;;5110532;28;20039;-69
2023/08/21 04:28:58;;;;;;;0.20;0.10;;;12.30;99.90;;;;;;5116967;27;20168;-70
2023/08/21 04:31:24;;;;;;;0.10;0.10;;;12.20;99.90;;;;;;5103302;28;20039;-69
2023/08/21 04:33:49;;;;;;;0.00;0.00;;;12.20;99.90;;;;;;5100419;28;20066;-69
2023/08/21 04:36:16;;;;;;;0.40;0.20;;;12.10;99.90;;;;;;5114980;28;20038;-70
2023/08/21 04:38:42;;;;;;;0.00;0.00;;;12.10;99.90;;;;;;5098676;28;20084;-70
2023/08/21 04:41:08;;;;;;;0.32;0.32;;;12.10;99.90;;;;;;5102506;28;20039;-69
2023/08/21 04:43:34;;;;;;;0.10;0.10;;;12.10;99.90;;;;;;5103317;28;20385;-69
2023/08/21 04:45:59;;;;;;;0.20;0.20;;;12.10;99.90;;;;;;5132139;27;20031;-69
2023/08/21 04:48:25;;;;;;;0.20;0.20;;;12.10;99.90;;;;;;5098025;28;20085;-69
2023/08/21 04:50:51;;;;;;;0.03;0.03;;;12.10;99.90;;;;;;5105419;28;20042;-69
2023/08/21 04:53:16;;;;;;;0.10;0.10;;;12.10;99.90;;;;;;5104192;28;20075;-69
2023/08/21 04:55:42;;;;;;;0.00;0.00;;;12.20;99.90;;;;;;5099689;28;20398;-69
2023/08/21 04:58:09;;;;;;;0.20;0.20;;;12.20;99.90;;;;;;5085639;28;20031;-69
2023/08/21 05:00:34;;;;;;;0.20;0.20;;;12.20;99.90;;;;;;5105361;28;20038;-69
2023/08/21 05:03:00;;;;;;;0.00;0.00;;;12.20;99.90;;;;;;5100990;28;20027;-69
2023/08/21 05:05:26;;;;;;;0.00;0.00;;;12.20;99.90;;;;;;5083490;28;20039;-68
2023/08/21 05:07:52;;;;;;;0.10;0.10;;;12.30;99.90;;;;;;5102786;28;20286;-69
2023/08/21 05:10:18;;;;;;;0.30;0.30;;;12.30;99.90;;;;;;5103764;27;20039;-68
2023/08/21 05:12:44;;;;;;;3.90;1.30;;;12.30;99.90;;;;;;5103435;27;20047;-68
2023/08/21 05:15:10;;;;;;;0.00;0.00;;;12.30;99.90;;;;;;5106288;27;20096;-69
2023/08/21 05:17:36;;;;;;;0.03;0.03;;;12.30;99.90;;;;;;5112612;27;20046;-69
2023/08/21 05:20:01;;;;;;;0.00;0.00;;;12.30;99.90;;;;;;5118040;27;20035;-69
2023/08/21 05:22:27;;;;;;;0.08;0.08;;;12.40;99.90;;;;;;5102828;28;20032;-69
2023/08/21 05:24:52;;;;;;;0.30;0.20;;;12.50;99.90;;;;;;5101379;27;20096;-69
2023/08/21 05:27:18;;;;;;;0.00;0.00;;;12.50;99.90;;;;;;5119631;27;20045;-69
2023/08/21 05:29:44;;;;;;;0.10;0.10;;;12.60;99.90;;;;;;5133914;27;20126;-69
2023/08/21 05:32:09;;;;;;;0.10;0.10;;;12.70;99.90;;;;;;5124186;27;20039;-69
2023/08/21 05:34:35;;;;;;;0.13;0.10;;;12.80;99.90;;;;;;5109272;27;20035;-69
2023/08/21 05:37:00;;;;;;;0.10;0.10;;;12.80;99.90;;;;;;5122419;27;20043;-69
2023/08/21 05:39:26;;;;;;;0.00;0.00;;;12.80;99.90;;;;;;5124297;27;20124;-69
2023/08/21 05:41:52;;;;;;;0.10;0.10;;;12.90;99.90;;;;;;5112743;27;20082;-69
2023/08/21 05:44:17;;;;;;;0.10;0.10;;;13.00;99.90;;;;;;5118178;27;20126;-69
2023/08/21 05:46:43;;;;;;;0.50;0.50;;;13.00;99.90;;;;;;5114798;27;20504;-69
2023/08/21 05:49:09;;;;;;;0.10;0.10;;;13.10;99.90;;;;;;5110969;27;20043;-69
2023/08/21 05:51:34;;;;;;;0.00;0.00;;;13.10;99.90;;;;;;5120820;27;20046;-69
2023/08/21 05:54:00;;;;;;;0.35;0.28;;;13.20;99.90;;;;;;5153332;27;20465;-69
2023/08/21 05:56:26;;;;;;;1.98;0.63;;;13.30;99.90;;;;;;5132285;27;20031;-69
2023/08/21 05:58:51;;;;;;;0.22;0.22;;;13.40;99.90;;;;;;5112794;27;20082;-69
2023/08/21 06:01:17;;;;;;;1.08;0.00;;;13.50;99.90;;;;;;5116028;27;20035;-69
2023/08/21 06:03:43;;;;;;;0.20;0.20;;;13.60;99.90;;;;;;5098234;27;20409;-69
2023/08/21 06:06:08;;;;;;;0.43;0.25;;;13.70;99.90;;;;;;5112605;27;20031;-69
2023/08/21 06:08:34;;;;;;;0.17;0.17;;;13.80;99.90;;;;;;5109654;27;20039;-69
2023/08/21 06:11:00;;;;;;;0.00;0.00;;;13.90;99.90;;;;;;5108639;27;20401;-69
2023/08/21 06:13:26;;;;;;;0.10;0.10;;;14.00;99.90;;;;;;5112620;27;20092;-69
2023/08/21 06:15:52;;;;;;;0.43;0.40;;;14.20;99.90;;;;;;5113978;27;20686;-69
2023/08/21 06:18:18;;;;;;;0.15;0.15;;;14.30;99.90;;;;;;5105753;27;20440;-69
2023/08/21 06:20:43;;;;;;;0.00;0.00;;;14.40;99.90;;;;;;5123903;27;20039;-68
2023/08/21 06:23:10;;;;;;;0.47;0.10;;;14.60;99.90;;;;;;5099348;27;20035;-68
2023/08/21 06:25:36;;;;;;;0.00;0.00;;;14.80;99.90;;;;;;5102683;27;20053;-68
2023/08/21 06:28:02;;;;;;;0.10;0.10;;;14.90;99.90;;;;;;5102427;27;20504;-68
2023/08/21 06:30:28;;;;;;;0.55;0.55;;;15.00;99.90;;;;;;5116722;27;20038;-68
2023/08/21 06:32:54;;;;;;;0.00;0.00;;;15.20;99.90;;;;;;5099362;27;20039;-68
2023/08/21 06:35:20;;;;;;;0.03;0.03;;;15.30;99.90;;;;;;5104036;27;20066;-68
2023/08/21 06:37:45;;;;;;;0.03;0.03;;;15.50;99.90;;;;;;5099123;27;20130;-69
2023/08/21 06:40:11;;;;;;;0.13;0.10;;;15.70;99.90;;;;;;5105206;27;20481;-69
2023/08/21 06:42:37;;;;;;;0.00;0.00;;;15.90;99.90;;;;;;5102315;27;20481;-68
2023/08/21 06:45:04;;;;;;;0.00;0.00;;;16.10;99.90;;;;;;5099716;27;20412;-69
2023/08/21 06:47:31;;;;;;;0.03;0.03;;;16.30;99.90;;;;;;5098047;27;20043;-69
2023/08/21 06:49:56;;;;;;;0.10;0.10;;;16.40;99.90;;;;;;5104512;27;20042;-69
2023/08/21 06:52:22;;;;;;;0.40;0.30;;;16.60;99.90;;;;;;5099803;27;20061;-69
2023/08/21 06:54:47;;;;;;;0.10;0.10;;;16.80;99.90;;;;;;5121058;27;20039;-69
2023/08/21 06:57:13;;;;;;;0.43;0.32;;;16.90;99.90;;;;;;5104221;27;20468;-69
2023/08/21 06:59:39;;;;;;;0.00;0.00;;;17.00;99.90;;;;;;5097492;28;20386;-69
2023/08/21 07:02:06;;;;;;;0.57;0.20;;;17.20;99.90;;;;;;5094993;27;20377;-69
2023/08/21 07:04:33;;;;;;;0.10;0.10;;;17.30;99.90;;;;;;5104112;27;20038;-69
2023/08/21 07:06:59;;;;;;;0.30;0.30;;;17.50;99.90;;;;;;5111119;27;20039;-69
2023/08/21 07:09:25;;;;;;;0.00;0.00;;;17.60;99.90;;;;;;5101068;27;20035;-69
2023/08/21 07:11:50;;;;;;;0.00;0.00;;;17.80;99.90;;;;;;5114354;27;20075;-69
2023/08/21 07:14:16;;;;;;;0.00;0.00;;;17.90;99.90;;;;;;5102663;27;20119;-70
2023/08/21 07:16:43;;;;;;;0.10;0.10;;;18.10;99.90;;;;;;5099820;27;20048;-69
2023/08/21 07:19:08;;;;;;;0.10;0.10;;;18.20;99.90;;;;;;5110505;27;20066;-70
2023/08/21 07:21:36;;;;;;;0.08;0.08;;;18.30;99.90;;;;;;5093357;28;20490;-70
2023/08/21 07:24:02;;;;;;;0.00;0.00;;;18.40;99.90;;;;;;5112000;27;20163;-70
2023/08/21 07:26:28;;;;;;;0.05;0.05;;;18.60;99.90;;;;;;5109050;27;20061;-70
2023/08/21 07:28:54;;;;;;;0.20;0.20;;;18.60;99.90;;;;;;5094865;27;20035;-70
2023/08/21 07:31:20;;;;;;;0.13;0.13;;;18.80;99.90;;;;;;5108976;27;20046;-70
2023/08/21 07:33:46;;;;;;;0.10;0.10;;;18.90;99.90;;;;;;5095198;28;20050;-70
2023/08/21 07:36:16;;;;;;;0.10;0.10;;;19.00;99.90;;;;;;5104317;27;20050;-70
2023/08/21 07:38:43;;;;;;;0.10;0.10;;;19.10;99.90;;;;;;5095539;27;20063;-71
2023/08/21 07:41:10;;;;;;;0.08;0.08;;;19.20;99.90;;;;;;5104213;28;20128;-70
2023/08/21 07:43:43;;;;;;;0.40;0.22;;;19.30;99.90;;;;;;5094384;28;20032;-70
2023/08/21 07:46:13;;;;;;;0.10;0.10;;;19.40;99.90;;;;;;5107790;27;20028;-70
2023/08/21 07:48:39;;;;;;;0.10;0.10;;;19.50;99.90;;;;;;5100031;27;20536;-70
2023/08/21 07:51:05;;;;;;;0.03;0.03;;;19.50;99.90;;;;;;5110157;27;20062;-70
2023/08/21 07:53:31;;;;;;;0.22;0.22;;;19.60;99.90;;;;;;5102173;27;20117;-70
2023/08/21 07:55:58;;;;;;;0.15;0.15;;;19.70;99.90;;;;;;5116343;27;20051;-71
2023/08/21 07:58:24;;;;;;;5.57;0.90;;;19.80;99.90;;;;;;5102947;27;20040;-70
2023/08/21 08:00:49;;;;;;;0.10;0.10;;;19.80;99.90;;;;;;5091888;28;20114;-70
2023/08/21 08:03:15;;;;;;;0.10;0.10;;;20.00;99.90;;;;;;5102965;27;20417;-70
2023/08/21 08:05:42;;;;;;;0.50;0.45;;;20.00;99.90;;;;;;5126487;27;20051;-70
2023/08/21 08:08:08;;;;;;;0.10;0.10;;;20.10;99.90;;;;;;5091793;27;20038;-70
2023/08/21 08:10:36;;;;;;;0.05;0.05;;;20.30;99.90;;;;;;5095448;27;20039;-70
2023/08/21 08:13:02;;;;;;;0.03;0.03;;;20.30;99.90;;;;;;5138401;27;20549;-70
2023/08/21 08:15:28;;;;;;;0.10;0.10;;;20.40;99.90;;;;;;5111402;28;20129;-70
2023/08/21 08:17:54;;;;;;;2.08;0.80;;;20.40;99.90;;;;;;5099502;28;20039;-70
2023/08/21 08:20:20;;;;;;;0.10;0.10;;;20.50;99.90;;;;;;5120615;27;20085;-70
2023/08/21 08:22:46;;;;;;;0.28;0.28;;;20.60;99.90;;;;;;5107734;27;20751;-70
2023/08/21 08:25:11;;;;;;;0.00;0.00;;;20.60;99.90;;;;;;5098555;28;20035;-70
2023/08/21 08:27:37;;;;;;;0.10;0.10;;;20.70;99.90;;;;;;5108028;28;20046;-70
2023/08/21 08:30:03;;;;;;;2.35;0.52;;;20.70;99.90;;;;;;5110038;28;20459;-70
2023/08/21 08:32:29;;;;;;;0.03;0.03;;;20.80;99.90;;;;;;5108253;28;20125;-70
2023/08/21 08:34:55;;;;;;;0.30;0.30;;;20.90;99.90;;;;;;5101106;28;20135;-69
2023/08/21 08:37:21;;;;;;;0.10;0.10;;;20.90;99.90;;;;;;5111133;28;20122;-70
2023/08/21 08:39:47;;;;;;;0.10;0.10;;;21.00;99.90;;;;;;5119464;28;20445;-70
2023/08/21 08:42:14;;;;;;;0.10;0.10;;;21.00;99.90;;;;;;5127932;28;20103;-70
2023/08/21 08:44:41;;;;;;;0.98;0.55;;;21.00;99.90;;;;;;5105804;27;20378;-69
2023/08/21 08:47:08;;;;;;;0.00;0.00;;;21.10;99.90;;;;;;5114115;27;20493;-70
2023/08/21 08:49:33;;;;;;;0.20;0.20;;;21.10;99.90;;;;;;5117004;27;20066;-70
2023/08/21 08:52:00;;;;;;;0.32;0.30;;;21.10;99.90;;;;;;5114790;27;20461;-70
2023/08/21 08:54:27;;;;;;;0.45;0.25;;;21.10;99.90;;;;;;5115544;27;20131;-70
2023/08/21 08:56:53;;;;;;;0.13;0.13;;;21.20;99.90;;;;;;5108656;27;20050;-69
2023/08/21 08:59:19;;;;;;;0.10;0.10;;;21.30;99.90;;;;;;5108163;27;20035;-70
2023/08/21 09:01:45;;;;;;;0.10;0.10;;;21.40;99.90;;;;;;5114279;27;20039;-70
2023/08/21 09:04:11;;;;;;;0.10;0.10;;;21.40;99.90;;;;;;5135137;27;20466;-69
2023/08/21 09:06:37;;;;;;;0.10;0.10;;;21.40;99.90;;;;;;5096246;28;20051;-70
2023/08/21 09:09:03;;;;;;;0.10;0.10;;;21.50;99.90;;;;;;5104168;27;20076;-69
2023/08/21 09:11:29;;;;;;;0.10;0.10;;;21.60;99.90;;;;;;5129402;27;20075;-69
2023/08/21 09:13:55;;;;;;;0.60;0.25;;;21.60;99.90;;;;;;5134145;27;20406;-69
2023/08/21 09:16:23;;;;;;;0.43;0.10;;;21.60;99.90;;;;;;5125012;27;20050;-70
2023/08/21 09:18:50;;;;;;;0.10;0.10;;;21.70;99.90;;;;;;5107578;28;20525;-70
2023/08/21 09:21:20;;;;;;;0.28;0.28;;;21.70;99.90;;;;;;5100227;27;20038;-70
2023/08/21 09:23:46;;;;;;;0.30;0.25;;;21.80;99.90;;;;;;5105995;28;20035;-69
2023/08/21 09:26:22;;;;;;;0.98;0.20;;;21.90;99.90;;;;;;5111162;27;20042;-69
2023/08/21 09:28:52;;;;;;;0.15;0.08;;;22.00;99.90;;;;;;5112075;27;20042;-68
2023/08/21 09:31:36;;;;;;;0.10;0.10;;;22.10;99.90;;;;;;5133077;27;20104;-69
2023/08/21 09:34:06;;;;;;;2.17;0.75;;;22.20;99.90;;;;;;5109884;27;21123;-68
2023/08/21 09:36:35;;;;;;;1.15;1.15;;;22.20;99.90;;;;;;5109061;27;20075;-69
2023/08/21 09:39:02;;;;;;;0.13;0.13;;;22.30;99.90;;;;;;5109893;27;20039;-69
2023/08/21 09:41:27;;;;;;;0.10;0.10;;;22.30;99.90;;;;;;5126063;27;20043;-69
2023/08/21 09:43:59;;;;;;;0.00;0.00;;;22.40;99.90;;;;;;5126403;27;20080;-69
2023/08/21 09:46:26;;;;;;;;;;;22.40;99.90;;;;;;5114360;27;20104;-69
2023/08/21 09:48:52;;;;;;;0.15;0.15;;;22.50;99.90;;;;;;5128594;27;19919;-69
2023/08/21 09:51:18;;;;;;;0.65;0.32;;;22.60;99.90;;;;;;5115183;27;20066;-69
2023/08/21 09:53:44;;;;;;;0.10;0.10;;;22.70;99.90;;;;;;5119370;27;20075;-69
2023/08/21 09:56:11;;;;;;;0.10;0.10;;;22.70;99.90;;;;;;5129670;27;20064;-69
2023/08/21 09:58:37;;;;;;;0.30;0.30;;;22.80;99.90;;;;;;5098714;27;20071;-69
2023/08/21 10:01:11;;;;;;;0.25;0.25;;;22.80;99.90;;;;;;5086073;27;20065;-69
2023/08/21 10:03:39;;;;;;;0.28;0.28;;;22.90;99.90;;;;;;5106587;27;20080;-69
2023/08/21 10:06:06;;;;;;;0.10;0.10;;;23.00;99.90;;;;;;5108901;27;20066;-69
2023/08/21 10:08:37;;;;;;;0.05;0.05;;;23.00;99.90;;;;;;5101084;27;20047;-68
2023/08/21 10:11:04;;;;;;;1.98;1.00;;;23.10;99.90;;;;;;5110841;27;20035;-68
2023/08/21 10:13:32;;;;;;;0.85;0.43;;;23.10;99.90;;;;;;5100433;27;20040;-68
2023/08/21 10:15:57;;;;;;;0.10;0.10;;;23.10;99.90;;;;;;5116824;27;20484;-67
2023/08/21 10:18:34;;;;;;;0.30;0.30;;;23.10;99.90;;;;;;5097199;27;20032;-67
2023/08/21 10:21:18;;;;;;;0.65;0.20;;;23.20;99.90;;;;;;5110181;27;20104;-68
2023/08/21 10:23:51;;;;;;;0.43;0.43;;;23.20;99.90;;;;;;5099568;27;21372;-67
2023/08/21 10:26:22;;;;;;;0.20;0.17;;;23.30;99.90;;;;;;5103970;27;20124;-68
2023/08/21 10:28:50;;;;;;;0.20;0.20;;;23.30;99.90;;;;;;5095908;27;20052;-68
2023/08/21 10:31:27;;;;;;;0.70;0.20;;;23.30;99.90;;;;;;5104785;27;20054;-69
2023/08/21 10:33:53;;;;;;;0.10;0.10;;;23.40;99.90;;;;;;5094588;27;20039;-69
2023/08/21 10:36:44;;;;;;;0.20;0.20;;;23.40;99.90;;;;;;5113076;27;20035;-69
2023/08/21 10:39:25;;;;;;;0.10;0.10;;;23.40;99.90;;;;;;5094432;28;20111;-69
2023/08/21 10:42:01;;;;;;;0.32;0.22;;;23.50;99.90;;;;;;5104165;27;20039;-67
2023/08/21 10:44:48;;;;;;;3.03;0.73;;;23.60;99.90;;;;;;5109418;27;20031;-69
2023/08/21 10:47:26;;;;;;;0.20;0.20;;;23.70;99.90;;;;;;5111913;27;20077;-68
2023/08/21 10:50:04;;;;;;;0.10;0.10;;;23.70;99.90;;;;;;5105489;27;20043;-68
2023/08/21 10:52:37;;;;;;;0.28;0.28;;;23.80;99.90;;;;;;5114914;27;20046;-68
2023/08/21 10:55:03;;;;;;;0.13;0.13;;;23.80;99.90;;;;;;5097095;27;20039;-67
2023/08/21 10:57:31;;;;;;;0.15;0.15;;;23.80;99.90;;;;;;5112353;27;20087;-67
2023/08/21 10:59:57;;;;;;;0.40;0.22;;;23.90;99.90;;;;;;5111474;27;20046;-68
2023/08/21 11:02:25;;;;;;;0.20;0.20;;;23.90;99.90;;;;;;5105347;28;20474;-68
2023/08/21 11:04:51;;;;;;;1.35;0.70;;;23.90;99.90;;;;;;5104855;27;20039;-68
2023/08/21 11:07:18;;;;;;;0.68;0.60;;;24.00;99.90;;;;;;5112687;27;20043;-67
2023/08/21 11:09:44;;;;;;;0.20;0.20;;;24.00;99.90;;;;;;5114709;27;20198;-68
2023/08/21 11:12:12;;;;;;;0.93;0.50;;;24.10;99.90;;;;;;5108806;27;20046;-68
2023/08/21 11:14:39;;;;;;;0.10;0.10;;;24.10;99.90;;;;;;5095848;27;20052;-69
2023/08/21 11:17:05;;;;;;;0.80;0.47;;;24.10;99.90;;;;;;5092302;28;20043;-68
2023/08/21 11:19:32;;;;;;;0.08;0.08;;;24.20;99.90;;;;;;5093971;28;20044;-68
2023/08/21 11:22:00;;;;;;;0.85;0.20;;;24.20;99.90;;;;;;5093010;28;20505;-69
2023/08/21 11:24:31;;;;;;;0.10;0.10;;;24.20;99.90;;;;;;5138321;27;20043;-68
2023/08/21 11:26:57;;;;;;;0.25;0.25;;;24.00;99.90;;;;;;5121378;27;20115;-69
2023/08/21 11:29:22;;;;;;;0.20;0.20;;;23.80;99.90;;;;;;5113134;27;20114;-69
2023/08/21 11:31:48;;;;;;;0.10;0.10;;;23.60;99.90;;;;;;5126426;27;20042;-69
2023/08/21 11:34:21;;;;;;;0.10;0.10;;;23.60;99.90;;;;;;5124429;27;20071;-68
2023/08/21 11:36:47;;;;;;;0.10;0.10;;;23.60;99.90;;;;;;5101704;27;20055;-69
2023/08/21 11:39:13;;;;;;;0.25;0.10;;;23.60;99.90;;;;;;5109459;27;20040;-70
2023/08/21 11:41:57;;;;;;;0.10;0.10;;;23.70;99.90;;;;;;5120445;27;20138;-68
2023/08/21 11:44:23;;;;;;;0.43;0.43;;;23.80;99.90;;;;;;5093485;28;20487;-71
2023/08/21 11:46:53;;;;;;;0.20;0.20;;;23.90;99.90;;;;;;5096288;27;20165;-69
2023/08/21 11:49:19;;;;;;;0.20;0.10;;;23.80;99.90;;;;;;5105310;28;20474;-68
2023/08/21 11:51:46;;;;;;;0.20;0.17;;;23.70;99.90;;;;;;5120294;27;20125;-70
2023/08/21 11:54:11;;;;;;;1.08;0.35;;;23.80;99.90;;;;;;5101636;28;20235;-70
2023/08/21 11:56:41;;;;;;;0.10;0.10;;;23.90;99.90;;;;;;5091397;28;20122;-68
2023/08/21 11:59:07;;;;;;;4.60;0.25;;;24.00;99.90;;;;;;5103609;27;20049;-69
2023/08/21 12:01:35;;;;;;;0.28;0.28;;;24.10;99.90;;;;;;5110252;27;20403;-68
2023/08/21 12:04:01;;;;;;;0.10;0.10;;;24.10;99.90;;;;;;5097859;27;20046;-69
2023/08/21 12:06:32;;;;;;;0.03;0.03;;;24.20;99.90;;;;;;5108892;28;20039;-68
2023/08/21 12:08:57;;;;;;;0.38;0.20;;;24.20;99.90;;;;;;5097953;27;20053;-68
2023/08/21 12:11:23;;;;;;;0.17;0.17;;;24.30;99.90;;;;;;5098617;28;20414;-68
2023/08/21 12:13:50;;;;;;;0.22;0.13;;;24.30;99.90;;;;;;5093174;27;20046;-68
2023/08/21 12:16:17;;;;;;;0.10;0.10;;;24.40;99.90;;;;;;5137960;27;20043;-68
2023/08/21 12:18:42;;;;;;;0.10;0.10;;;24.40;99.90;;;;;;5099800;27;20081;-68
2023/08/21 12:21:08;;;;;;;0.10;0.10;;;24.40;99.90;;;;;;5108351;28;20039;-67
2023/08/21 12:23:34;;;;;;;0.17;0.17;;;24.50;99.90;;;;;;5109369;28;20416;-68
2023/08/21 12:25:59;;;;;;;0.03;0.03;;;24.50;99.90;;;;;;5110262;28;20066;-67
2023/08/21 12:28:25;;;;;;;0.00;0.00;;;24.50;99.90;;;;;;5111886;28;20047;-73
2023/08/21 12:30:51;;;;;;;0.20;0.20;;;24.60;99.90;;;;;;5121137;27;20027;-72
2023/08/21 12:33:16;;;;;;;0.00;0.00;;;24.60;99.90;;;;;;5104922;28;20035;-69
2023/08/21 12:35:42;;;;;;;0.08;0.08;;;24.60;99.90;;;;;;5100912;28;20440;-71
2023/08/21 12:38:12;;;;;;;0.00;0.00;;;24.60;99.90;;;;;;5095378;28;20041;-69
2023/08/21 12:40:38;;;;;;;0.03;0.03;;;24.70;99.90;;;;;;5091251;28;20043;-68
2023/08/21 12:43:04;;;;;;;0.10;0.10;;;24.70;99.90;;;;;;5090500;28;20305;-68
2023/08/21 12:45:30;;;;;;;0.30;0.08;;;24.70;99.90;;;;;;5090559;28;20059;-68